createdAt,value
2018-01-25T00:00:09.796Z,6.90
2018-01-25T00:02:37.361Z,7.00
2018-01-25T00:05:04.972Z,7.00
2018-01-25T00:07:32.551Z,6.90
2018-01-25T00:10:00.204Z,6.90
2018-01-25T00:12:27.808Z,6.90
2018-01-25T00:14:55.432Z,6.90
2018-01-25T00:17:23.009Z,6.90
2018-01-25T00:19:50.624Z,6.90
2018-01-25T00:22:18.248Z,6.90
2018-01-25T00:24:45.863Z,6.90
2018-01-25T00:27:13.433Z,6.90
2018-01-25T00:29:41.841Z,6.80
2018-01-25T00:32:09.449Z,6.80
2018-01-25T00:34:37.026Z,6.80
2018-01-25T00:37:05.426Z,6.80
2018-01-25T00:39:33.214Z,6.80
2018-01-25T00:42:00.831Z,6.80
2018-01-25T00:44:28.407Z,6.80
2018-01-25T00:46:56.025Z,6.80
2018-01-25T00:49:23.704Z,6.80
2018-01-25T00:51:51.329Z,6.80
2018-01-25T00:54:18.925Z,6.90
2018-01-25T00:56:46.530Z,6.90
2018-01-25T00:59:14.109Z,6.80
2018-01-25T01:01:41.749Z,6.80
2018-01-25T01:04:09.327Z,6.80
2018-01-25T01:06:36.992Z,6.80
2018-01-25T01:09:04.811Z,6.70
2018-01-25T01:11:33.149Z,6.80
2018-01-25T01:14:00.780Z,6.70
2018-01-25T01:16:28.364Z,6.70
2018-01-25T01:18:56.087Z,6.70
2018-01-25T01:21:23.671Z,6.70
2018-01-25T01:23:51.288Z,6.70
2018-01-25T01:26:18.892Z,6.70
2018-01-25T01:28:46.533Z,6.70
2018-01-25T01:31:14.117Z,6.70
2018-01-25T01:33:41.730Z,6.70
2018-01-25T01:36:09.360Z,6.70
2018-01-25T01:38:36.968Z,6.70
2018-01-25T01:41:04.561Z,6.70
2018-01-25T01:43:32.298Z,6.70
2018-01-25T01:46:02.311Z,6.70
2018-01-25T01:48:30.003Z,6.70
2018-01-25T01:50:57.606Z,6.70
2018-01-25T01:53:25.228Z,6.70
2018-01-25T01:55:52.819Z,6.80
2018-01-25T01:58:20.404Z,6.80
2018-01-25T02:00:48.007Z,6.80
2018-01-25T02:03:15.869Z,6.80
2018-01-25T02:05:43.452Z,6.80
2018-01-25T02:08:11.092Z,6.80
2018-01-25T02:10:38.659Z,6.80
2018-01-25T02:13:06.622Z,6.70
2018-01-25T02:15:34.481Z,6.80
2018-01-25T02:18:02.876Z,6.90
2018-01-25T02:20:30.631Z,6.80
2018-01-25T02:22:58.260Z,6.80
2018-01-25T02:25:26.004Z,6.90
2018-01-25T02:27:53.642Z,6.90
2018-01-25T02:30:21.578Z,6.90
2018-01-25T02:32:52.967Z,7.00
2018-01-25T02:35:20.712Z,7.00
2018-01-25T02:37:48.329Z,6.90
2018-01-25T02:40:15.944Z,7.00
2018-01-25T02:42:43.898Z,7.00
2018-01-25T02:45:11.502Z,7.00
2018-01-25T02:47:39.325Z,7.00
2018-01-25T02:50:06.901Z,7.00
2018-01-25T02:52:34.783Z,7.10
2018-01-25T02:55:02.371Z,7.00
2018-01-25T02:57:30.113Z,7.10
2018-01-25T02:59:57.803Z,7.10
2018-01-25T03:02:25.540Z,7.10
2018-01-25T03:04:53.168Z,7.10
2018-01-25T03:07:20.740Z,7.10
2018-01-25T03:09:48.701Z,7.10
2018-01-25T03:12:16.320Z,7.10
2018-01-25T03:14:43.925Z,7.10
2018-01-25T03:17:11.552Z,7.10
2018-01-25T03:19:39.115Z,7.10
2018-01-25T03:22:06.769Z,7.10
2018-01-25T03:24:34.376Z,7.10
2018-01-25T03:27:01.952Z,7.10
2018-01-25T03:29:29.633Z,7.10
2018-01-25T03:31:57.437Z,7.20
2018-01-25T03:34:25.057Z,7.20
2018-01-25T03:36:52.695Z,7.10
2018-01-25T03:39:20.314Z,7.10
2018-01-25T03:41:48.237Z,7.10
2018-01-25T03:44:15.807Z,7.10
2018-01-25T03:46:43.445Z,7.10
2018-01-25T03:49:11.240Z,7.10
2018-01-25T03:51:38.993Z,7.10
2018-01-25T03:54:06.557Z,7.10
2018-01-25T03:56:34.429Z,7.00
2018-01-25T03:59:02.291Z,7.00
2018-01-25T04:01:29.957Z,7.00
2018-01-25T04:03:57.600Z,7.10
2018-01-25T04:06:25.214Z,7.00
2018-01-25T04:08:52.827Z,7.10
2018-01-25T04:11:20.405Z,7.10
2018-01-25T04:13:48.060Z,7.00
2018-01-25T04:16:15.754Z,7.00
2018-01-25T04:18:43.358Z,6.90
2018-01-25T04:21:10.978Z,6.90
2018-01-25T04:23:38.579Z,6.90
2018-01-25T04:26:06.206Z,6.90
2018-01-25T04:28:33.794Z,6.90
2018-01-25T04:31:02.314Z,6.80
2018-01-25T04:33:29.973Z,6.80
2018-01-25T04:35:57.542Z,6.70
2018-01-25T04:38:25.156Z,6.70
2018-01-25T04:40:53.729Z,6.70
2018-01-25T04:43:21.333Z,6.70
2018-01-25T04:45:49.160Z,6.70
2018-01-25T04:48:16.820Z,6.80
2018-01-25T04:50:44.387Z,6.80
2018-01-25T04:53:12.081Z,6.90
2018-01-25T04:55:39.652Z,7.00
2018-01-25T04:58:07.262Z,7.00
2018-01-25T05:00:35.701Z,7.00
2018-01-25T05:03:03.363Z,7.00
2018-01-25T05:05:31.112Z,7.00
2018-01-25T05:07:58.896Z,7.00
2018-01-25T05:10:26.511Z,7.00
2018-01-25T05:12:54.134Z,7.00
2018-01-25T05:15:21.822Z,7.00
2018-01-25T05:17:59.380Z,7.00
2018-01-25T05:20:27.263Z,6.90
2018-01-25T05:22:54.947Z,7.00
2018-01-25T05:25:22.599Z,7.00
2018-01-25T05:27:50.214Z,7.00
2018-01-25T05:30:18.087Z,7.00
2018-01-25T05:32:46.053Z,7.00
2018-01-25T05:35:13.665Z,7.00
2018-01-25T05:37:41.452Z,7.00
2018-01-25T05:40:09.073Z,6.90
2018-01-25T05:42:36.698Z,7.00
2018-01-25T05:45:04.319Z,6.90
2018-01-25T05:47:31.906Z,7.00
2018-01-25T05:49:59.472Z,7.00
2018-01-25T05:52:27.079Z,7.00
2018-01-25T05:54:54.827Z,7.00
2018-01-25T05:57:22.447Z,7.00
2018-01-25T05:59:50.050Z,7.00
2018-01-25T06:02:17.727Z,7.00
2018-01-25T06:04:45.513Z,7.00
2018-01-25T06:07:13.119Z,7.00
2018-01-25T06:09:40.842Z,7.00
2018-01-25T06:12:08.736Z,7.00
2018-01-25T06:14:37.156Z,7.00
2018-01-25T06:17:04.761Z,7.00
2018-01-25T06:19:32.391Z,7.00
2018-01-25T06:22:01.220Z,7.10
2018-01-25T06:24:28.852Z,7.00
2018-01-25T06:26:56.424Z,7.00
2018-01-25T06:29:24.023Z,7.00
2018-01-25T06:31:51.630Z,7.00
2018-01-25T06:34:19.318Z,7.00
2018-01-25T06:36:46.947Z,7.10
2018-01-25T06:39:15.316Z,7.10
2018-01-25T06:41:42.945Z,7.10
2018-01-25T06:44:11.672Z,7.10
2018-01-25T06:46:39.259Z,7.10
2018-01-25T06:49:06.883Z,7.10
2018-01-25T06:51:34.703Z,7.10
2018-01-25T06:54:02.414Z,7.10
2018-01-25T06:56:30.752Z,7.20
2018-01-25T06:58:59.561Z,7.20
2018-01-25T07:01:27.175Z,7.20
2018-01-25T07:03:54.808Z,7.20
2018-01-25T07:06:22.481Z,7.10
2018-01-25T07:08:50.084Z,7.10
2018-01-25T07:11:17.775Z,7.00
2018-01-25T07:13:45.577Z,6.90
2018-01-25T07:16:13.461Z,6.90
2018-01-25T07:18:41.112Z,6.80
2018-01-25T07:21:08.695Z,6.80
2018-01-25T07:23:36.331Z,6.70
2018-01-25T07:26:03.970Z,6.60
2018-01-25T07:28:31.733Z,6.60
2018-01-25T07:30:59.332Z,6.50
2018-01-25T07:33:26.949Z,6.40
2018-01-25T07:35:54.734Z,6.40
2018-01-25T07:38:22.312Z,6.40
2018-01-25T07:40:50.309Z,6.40
2018-01-25T07:43:17.919Z,6.40
2018-01-25T07:45:46.497Z,6.50
2018-01-25T07:48:14.093Z,6.60
2018-01-25T07:50:41.723Z,6.60
2018-01-25T07:53:09.312Z,6.70
2018-01-25T07:55:36.964Z,6.70
2018-01-25T07:58:19.005Z,6.70
2018-01-25T08:00:49.205Z,6.70
2018-01-25T08:03:16.871Z,6.70
2018-01-25T08:05:44.491Z,6.60
2018-01-25T08:08:12.066Z,6.70
2018-01-25T08:10:39.775Z,6.70
2018-01-25T08:13:13.079Z,6.70
2018-01-25T08:15:41.030Z,6.70
2018-01-25T08:18:08.898Z,6.70
2018-01-25T08:20:36.561Z,6.70
2018-01-25T08:23:04.200Z,6.80
2018-01-25T08:25:31.926Z,6.90
2018-01-25T08:27:59.559Z,6.90
2018-01-25T08:30:28.031Z,7.00
2018-01-25T08:32:55.670Z,7.00
2018-01-25T08:35:23.287Z,7.00
2018-01-25T08:37:50.977Z,7.00
2018-01-25T08:40:19.576Z,7.10
2018-01-25T08:42:47.330Z,7.10
2018-01-25T08:45:14.924Z,7.10
2018-01-25T08:47:42.535Z,7.10
2018-01-25T08:50:10.235Z,7.10
2018-01-25T08:52:37.846Z,7.20
2018-01-25T08:55:06.187Z,7.20
2018-01-25T08:57:33.757Z,7.20
2018-01-25T09:00:01.367Z,7.20
2018-01-25T09:02:28.975Z,7.10
2018-01-25T09:04:56.561Z,7.10
2018-01-25T09:07:24.956Z,7.10
2018-01-25T09:09:52.542Z,7.10
2018-01-25T09:12:20.118Z,7.10
2018-01-25T09:14:47.723Z,7.10
2018-01-25T09:17:16.693Z,7.20
2018-01-25T09:19:44.377Z,7.20
2018-01-25T09:22:12.055Z,7.20
2018-01-25T09:24:39.646Z,7.20
2018-01-25T09:27:07.285Z,7.20
2018-01-25T09:29:35.099Z,7.20
2018-01-25T09:32:02.669Z,7.20
2018-01-25T09:34:30.347Z,7.20
2018-01-25T09:36:58.031Z,7.20
2018-01-25T09:39:25.697Z,7.20
2018-01-25T09:41:53.364Z,7.20
2018-01-25T09:44:20.995Z,7.20
2018-01-25T09:46:48.633Z,7.20
2018-01-25T09:49:16.260Z,7.20
2018-01-25T09:51:43.847Z,7.30
2018-01-25T09:54:11.474Z,7.30
2018-01-25T09:56:39.087Z,7.30
2018-01-25T09:59:06.805Z,7.40
2018-01-25T10:01:34.447Z,7.40
2018-01-25T10:04:02.292Z,7.50
2018-01-25T10:06:29.910Z,7.40
2018-01-25T10:08:57.849Z,7.40
2018-01-25T10:11:25.786Z,7.50
2018-01-25T10:13:54.172Z,7.50
2018-01-25T10:16:21.874Z,7.50
2018-01-25T10:18:49.471Z,7.50
2018-01-25T10:21:17.592Z,7.50
2018-01-25T10:23:45.902Z,7.50
2018-01-25T10:26:13.794Z,7.60
2018-01-25T10:28:41.439Z,7.60
2018-01-25T10:31:09.052Z,7.60
2018-01-25T10:33:37.423Z,7.60
2018-01-25T10:36:05.895Z,7.70
2018-01-25T10:38:33.550Z,7.70
2018-01-25T10:41:01.326Z,7.70
2018-01-25T10:43:28.946Z,7.80
2018-01-25T10:45:56.614Z,7.80
2018-01-25T10:48:24.224Z,7.90
2018-01-25T10:50:51.859Z,8.00
2018-01-25T10:53:19.560Z,8.00
2018-01-25T10:55:48.055Z,8.10
2018-01-25T10:58:15.666Z,8.00
2018-01-25T11:00:49.019Z,8.10
2018-01-25T11:03:16.679Z,8.10
2018-01-25T11:05:44.268Z,8.20
2018-01-25T11:08:13.840Z,8.20
2018-01-25T11:10:41.722Z,8.20
2018-01-25T11:13:09.550Z,8.30
2018-01-25T11:15:37.184Z,8.30
2018-01-25T11:18:05.045Z,8.30
2018-01-25T11:20:32.676Z,8.30
2018-01-25T11:23:00.871Z,8.30
2018-01-25T11:25:29.522Z,8.40
2018-01-25T11:27:57.162Z,8.40
2018-01-25T11:30:25.409Z,8.40
2018-01-25T11:32:53.068Z,8.40
2018-01-25T11:35:20.700Z,8.40
2018-01-25T11:37:48.565Z,8.40
2018-01-25T11:40:16.144Z,8.40
2018-01-25T11:42:43.790Z,8.40
2018-01-25T11:45:11.387Z,8.40
2018-01-25T11:47:39.003Z,8.50
2018-01-25T11:50:06.724Z,8.50
2018-01-25T11:52:34.334Z,8.50
2018-01-25T11:55:02.351Z,8.50
2018-01-25T11:57:29.923Z,8.50
2018-01-25T11:59:57.518Z,8.50
2018-01-25T12:02:25.239Z,8.50
2018-01-25T12:04:52.882Z,8.50
2018-01-25T12:07:21.626Z,8.60
2018-01-25T12:09:50.039Z,8.70
2018-01-25T12:12:17.643Z,8.70
2018-01-25T12:14:45.267Z,8.70
2018-01-25T12:17:12.991Z,8.70
2018-01-25T12:19:41.374Z,8.70
2018-01-25T12:22:09.736Z,8.70
2018-01-25T12:24:37.477Z,8.70
2018-01-25T12:27:05.113Z,8.70
2018-01-25T12:29:32.723Z,8.70
2018-01-25T12:32:00.515Z,8.70
2018-01-25T12:34:28.443Z,8.70
2018-01-25T12:36:56.027Z,8.60
2018-01-25T12:39:32.831Z,8.60
2018-01-25T12:42:01.273Z,8.60
2018-01-25T12:44:30.536Z,8.60
2018-01-25T12:46:58.623Z,8.60
2018-01-25T12:49:26.346Z,8.60
2018-01-25T12:51:53.999Z,8.60
2018-01-25T12:54:21.612Z,8.60
2018-01-25T12:56:49.780Z,8.70
2018-01-25T12:59:17.388Z,8.70
2018-01-25T13:01:45.736Z,8.80
2018-01-25T13:04:13.359Z,8.70
2018-01-25T13:06:41.050Z,8.80
2018-01-25T13:09:08.647Z,8.80
2018-01-25T13:11:37.582Z,8.80
2018-01-25T13:14:05.180Z,8.80
2018-01-25T13:16:32.849Z,8.80
2018-01-25T13:19:00.498Z,8.80
2018-01-25T13:21:28.463Z,8.80
2018-01-25T13:23:56.067Z,8.70
2018-01-25T13:26:23.710Z,8.70
2018-01-25T13:28:52.612Z,8.70
2018-01-25T13:31:20.395Z,8.60
2018-01-25T13:33:48.029Z,8.60
2018-01-25T13:36:15.745Z,8.50
2018-01-25T13:38:43.605Z,8.50
2018-01-25T13:41:11.939Z,8.50
2018-01-25T13:43:39.562Z,8.50
2018-01-25T13:46:07.342Z,8.50
2018-01-25T13:48:34.971Z,8.50
2018-01-25T13:53:37.373Z,8.50
2018-01-25T13:56:05.435Z,8.50
2018-01-25T13:58:38.400Z,8.50
2018-01-25T14:01:06.734Z,8.50
2018-01-25T14:03:35.055Z,8.40
2018-01-25T14:06:03.016Z,8.40
2018-01-25T14:08:31.494Z,8.50
2018-01-25T14:10:59.107Z,8.50
2018-01-25T14:13:27.771Z,8.50
2018-01-25T14:15:56.774Z,8.50
2018-01-25T14:18:24.415Z,8.50
2018-01-25T14:20:52.764Z,8.40
2018-01-25T14:23:20.527Z,8.40
2018-01-25T14:25:49.608Z,8.40
2018-01-25T14:28:17.187Z,8.40
2018-01-25T14:30:44.807Z,8.30
2018-01-25T14:33:12.494Z,8.30
2018-01-25T14:35:40.118Z,8.30
2018-01-25T14:38:07.818Z,8.30
2018-01-25T14:40:36.662Z,8.30
2018-01-25T14:43:04.281Z,8.20
2018-01-25T14:45:32.282Z,8.20
2018-01-25T14:47:59.911Z,8.20
2018-01-25T14:50:27.523Z,8.10
2018-01-25T14:52:55.130Z,8.10
2018-01-25T14:55:22.784Z,8.10
2018-01-25T14:57:50.391Z,8.10
2018-01-25T15:00:19.801Z,8.00
2018-01-25T15:02:47.490Z,7.90
2018-01-25T15:05:16.004Z,7.90
2018-01-25T15:07:44.438Z,7.80
2018-01-25T15:10:12.378Z,7.80
2018-01-25T15:12:40.838Z,7.80
2018-01-25T15:15:08.487Z,7.70
2018-01-25T15:17:36.198Z,7.70
2018-01-25T15:20:03.855Z,7.60
2018-01-25T15:22:31.689Z,7.50
2018-01-25T15:25:04.907Z,7.50
2018-01-25T15:27:33.528Z,7.40
2018-01-25T15:30:01.365Z,7.40
2018-01-25T15:32:29.025Z,7.30
2018-01-25T15:34:56.681Z,7.20
2018-01-25T15:37:27.662Z,7.20
2018-01-25T15:39:55.235Z,7.10
2018-01-25T15:42:22.857Z,7.10
2018-01-25T15:44:50.482Z,7.10
2018-01-25T15:47:18.095Z,7.10
2018-01-25T15:49:45.751Z,7.10
2018-01-25T15:52:14.141Z,7.00
2018-01-25T15:54:41.751Z,7.00
2018-01-25T15:57:09.323Z,7.00
2018-01-25T15:59:37.097Z,7.00
2018-01-25T16:02:05.443Z,7.10
2018-01-25T16:04:33.019Z,7.10
2018-01-25T16:07:00.776Z,7.20
2018-01-25T16:09:28.346Z,7.20
2018-01-25T16:11:55.963Z,7.20
2018-01-25T16:14:23.622Z,7.20
2018-01-25T16:16:51.243Z,7.20
2018-01-25T16:19:18.866Z,7.20
2018-01-25T16:21:46.482Z,7.10
2018-01-25T16:24:14.057Z,7.00
2018-01-25T16:26:41.847Z,6.90
2018-01-25T16:29:09.487Z,6.90
2018-01-25T16:31:37.170Z,6.80
2018-01-25T16:34:04.742Z,6.80
2018-01-25T16:36:32.374Z,6.80
2018-01-25T16:38:59.958Z,6.70
2018-01-25T16:41:27.576Z,6.60
2018-01-25T16:43:55.918Z,6.50
2018-01-25T16:46:23.538Z,6.50
2018-01-25T16:48:51.246Z,6.40
2018-01-25T16:51:18.881Z,6.40
2018-01-25T16:53:46.469Z,6.40
2018-01-25T16:56:14.048Z,6.40
2018-01-25T16:58:41.691Z,6.40
2018-01-25T17:01:09.715Z,6.30
2018-01-25T17:03:37.357Z,6.30
2018-01-25T17:06:05.708Z,6.30
2018-01-25T17:08:33.479Z,6.30
2018-01-25T17:11:01.112Z,6.40
2018-01-25T17:13:28.744Z,6.40
2018-01-25T17:15:56.436Z,6.40
2018-01-25T17:18:24.070Z,6.40
2018-01-25T17:20:51.785Z,6.40
2018-01-25T17:23:19.755Z,6.40
2018-01-25T17:25:47.371Z,6.40
2018-01-25T17:28:15.114Z,6.40
2018-01-25T17:30:42.744Z,6.40
2018-01-25T17:33:10.457Z,6.40
2018-01-25T17:35:38.141Z,6.30
2018-01-25T17:38:05.743Z,6.30
2018-01-25T17:40:33.379Z,6.30
2018-01-25T17:43:01.005Z,6.30
2018-01-25T17:45:28.658Z,6.30
2018-01-25T17:47:57.092Z,6.30
2018-01-25T17:50:24.714Z,6.30
2018-01-25T17:52:52.311Z,6.30
2018-01-25T17:55:24.059Z,6.30
2018-01-25T17:57:52.816Z,6.30
2018-01-25T18:00:26.121Z,6.30
2018-01-25T18:02:53.757Z,6.40
2018-01-25T18:05:22.164Z,6.30
2018-01-25T18:07:50.074Z,6.30
2018-01-25T18:10:17.781Z,6.30
2018-01-25T18:12:45.515Z,6.30
2018-01-25T18:15:13.057Z,6.30
2018-01-25T18:17:40.700Z,6.20
2018-01-25T18:20:08.325Z,6.20
2018-01-25T18:22:35.951Z,6.20
2018-01-25T18:25:03.567Z,6.20
2018-01-25T18:27:31.322Z,6.10
2018-01-25T18:29:59.088Z,6.20
2018-01-25T18:32:26.667Z,6.10
2018-01-25T18:34:54.295Z,6.20
2018-01-25T18:37:21.953Z,6.20
2018-01-25T18:39:50.394Z,6.10
2018-01-25T18:42:19.681Z,6.00
2018-01-25T18:44:47.296Z,6.00
2018-01-25T18:47:15.096Z,6.00
2018-01-25T18:49:42.705Z,5.90
2018-01-25T18:52:10.718Z,5.90
2018-01-25T18:54:38.371Z,5.90
2018-01-25T18:57:07.137Z,5.90
2018-01-25T18:59:34.872Z,5.90
2018-01-25T19:02:02.616Z,5.90
2018-01-25T19:04:30.249Z,5.90
2018-01-25T19:07:04.655Z,5.90
2018-01-25T19:09:33.145Z,5.90
2018-01-25T19:12:00.784Z,5.80
2018-01-25T19:14:28.500Z,5.90
2018-01-25T19:16:56.206Z,5.80
2018-01-25T19:19:23.852Z,5.70
2018-01-25T19:21:51.454Z,5.70
2018-01-25T19:24:19.195Z,5.60
2018-01-25T19:26:46.795Z,5.60
2018-01-25T19:29:14.464Z,5.60
2018-01-25T19:31:42.048Z,5.60
2018-01-25T19:34:09.631Z,5.60
2018-01-25T19:36:37.263Z,5.50
2018-01-25T19:39:04.853Z,5.50
2018-01-25T19:41:32.472Z,5.40
2018-01-25T19:44:00.206Z,5.40
2018-01-25T19:46:27.851Z,5.40
2018-01-25T19:48:55.430Z,5.40
2018-01-25T19:51:23.829Z,5.30
2018-01-25T19:53:52.210Z,5.30
2018-01-25T19:56:20.660Z,5.30
2018-01-25T19:58:48.376Z,5.30
2018-01-25T20:01:15.969Z,5.30
2018-01-25T20:03:43.545Z,5.30
2018-01-25T20:06:11.244Z,5.30
2018-01-25T20:08:38.865Z,5.30
2018-01-25T20:11:06.590Z,5.30
2018-01-25T20:13:34.188Z,5.30
2018-01-25T20:16:01.805Z,5.30
2018-01-25T20:18:29.390Z,5.30
2018-01-25T20:20:57.007Z,5.30
2018-01-25T20:23:25.382Z,5.30
2018-01-25T20:25:53.772Z,5.30
2018-01-25T20:28:21.394Z,5.30
2018-01-25T20:30:49.336Z,5.30
2018-01-25T20:33:16.972Z,5.30
2018-01-25T20:35:44.614Z,5.30
2018-01-25T20:38:13.020Z,5.30
2018-01-25T20:40:40.606Z,5.30
2018-01-25T20:43:08.260Z,5.30
2018-01-25T20:45:35.950Z,5.30
2018-01-25T20:48:03.527Z,5.30
2018-01-25T20:50:31.152Z,5.20
2018-01-25T20:52:58.768Z,5.20
2018-01-25T20:55:26.558Z,5.20
2018-01-25T20:57:54.234Z,5.30
2018-01-25T21:00:21.823Z,5.20
2018-01-25T21:02:51.775Z,5.20
2018-01-25T21:05:20.111Z,5.20
2018-01-25T21:07:47.683Z,5.20
2018-01-25T21:10:15.303Z,5.20
2018-01-25T21:12:42.925Z,5.20
2018-01-25T21:15:10.548Z,5.20
2018-01-25T21:17:38.176Z,5.20
2018-01-25T21:20:05.762Z,5.20
2018-01-25T21:22:33.331Z,5.20
2018-01-25T21:25:00.949Z,5.20
2018-01-25T21:27:29.361Z,5.20
2018-01-25T21:29:56.943Z,5.20
2018-01-25T21:32:26.201Z,5.10
2018-01-25T21:34:53.772Z,5.10
2018-01-25T21:37:21.386Z,5.10
2018-01-25T21:39:49.004Z,5.00
2018-01-25T21:42:16.588Z,5.00
2018-01-25T21:44:44.222Z,5.00
2018-01-25T21:47:12.568Z,5.00
2018-01-25T21:49:40.182Z,5.00
2018-01-25T21:52:07.775Z,5.10
2018-01-25T21:54:36.282Z,5.10
2018-01-25T21:57:04.662Z,5.00
2018-01-25T21:59:33.029Z,5.10
2018-01-25T22:02:00.619Z,5.10
2018-01-25T22:04:28.234Z,5.20
2018-01-25T22:06:55.828Z,5.20
2018-01-25T22:09:23.517Z,5.20
2018-01-25T22:11:51.296Z,5.10
2018-01-25T22:14:18.885Z,5.10
2018-01-25T22:16:46.506Z,5.10
2018-01-25T22:19:14.082Z,5.00
2018-01-25T22:21:41.659Z,5.00
2018-01-25T22:24:09.281Z,4.90
2018-01-25T22:26:36.848Z,4.90
2018-01-25T22:29:04.501Z,4.90
2018-01-25T22:31:32.084Z,4.90
2018-01-25T22:33:59.686Z,4.80
2018-01-25T22:36:28.044Z,4.80
2018-01-25T22:38:55.601Z,4.80
2018-01-25T22:41:23.205Z,4.80
2018-01-25T22:43:51.577Z,4.70
2018-01-25T22:46:19.148Z,4.70
2018-01-25T22:48:47.352Z,4.70
2018-01-25T22:51:15.435Z,4.70
2018-01-25T22:53:43.065Z,4.70
2018-01-25T22:56:10.665Z,4.70
2018-01-25T22:58:39.232Z,4.80
2018-01-25T23:01:06.859Z,4.80
2018-01-25T23:03:34.458Z,4.80
2018-01-25T23:06:02.102Z,4.80
2018-01-25T23:08:29.682Z,4.80
2018-01-25T23:10:57.293Z,4.80
2018-01-25T23:13:24.863Z,4.80
2018-01-25T23:15:53.234Z,4.80
2018-01-25T23:18:21.045Z,4.70
2018-01-25T23:20:49.882Z,4.80
2018-01-25T23:23:18.491Z,4.80
2018-01-25T23:25:46.304Z,4.90
2018-01-25T23:28:13.880Z,4.90
2018-01-25T23:30:42.710Z,4.90
2018-01-25T23:33:10.706Z,4.90
2018-01-25T23:35:38.345Z,4.90
2018-01-25T23:38:06.054Z,4.90
2018-01-25T23:40:35.356Z,4.80
2018-01-25T23:43:02.966Z,4.80
2018-01-25T23:45:31.338Z,5.00
2018-01-25T23:47:58.931Z,4.90
2018-01-25T23:50:26.553Z,5.00
2018-01-25T23:52:54.171Z,5.10
2018-01-25T23:55:21.723Z,5.20
2018-01-25T23:57:49.313Z,5.30
